createdAt,value
2022-08-16T00:02:52.342Z,21.63
2022-08-16T00:07:56.518Z,21.56
2022-08-16T00:13:01.615Z,21.53
2022-08-16T00:18:05.854Z,21.53
2022-08-16T00:23:14.062Z,21.52
2022-08-16T00:28:18.736Z,21.50
2022-08-16T00:33:21.472Z,21.46
2022-08-16T00:38:40.961Z,21.42
2022-08-16T00:43:47.216Z,21.34
2022-08-16T00:48:51.840Z,21.27
2022-08-16T00:53:55.810Z,21.18
2022-08-16T00:59:01.269Z,21.09
2022-08-16T01:04:29.013Z,21.03
2022-08-16T01:09:34.082Z,20.97
2022-08-16T01:14:47.162Z,20.92
2022-08-16T01:19:56.916Z,20.91
2022-08-16T01:25:06.857Z,20.91
2022-08-16T01:30:19.533Z,20.89
2022-08-16T01:35:35.343Z,20.86
2022-08-16T01:40:39.433Z,20.83
2022-08-16T01:45:43.413Z,20.81
2022-08-16T01:51:08.981Z,20.81
2022-08-16T01:56:24.547Z,20.79
2022-08-16T02:01:30.119Z,20.77
2022-08-16T02:06:38.008Z,20.71
2022-08-16T02:11:48.135Z,20.65
2022-08-16T02:16:57.741Z,20.58
2022-08-16T02:22:08.208Z,20.54
2022-08-16T02:27:13.064Z,20.52
2022-08-16T02:32:49.932Z,20.50
2022-08-16T02:37:52.854Z,20.46
2022-08-16T02:42:56.482Z,20.40
2022-08-16T02:48:29.709Z,20.34
2022-08-16T02:53:23.340Z,20.29
2022-08-16T02:58:26.902Z,20.24
2022-08-16T03:04:41.262Z,20.21
2022-08-16T03:08:54.213Z,20.19
2022-08-16T03:13:57.056Z,20.18
2022-08-16T03:19:02.303Z,20.16
2022-08-16T03:24:28.377Z,20.14
2022-08-16T03:29:33.907Z,20.15
2022-08-16T03:34:36.674Z,20.18
2022-08-16T03:39:42.838Z,20.23
2022-08-16T03:44:49.335Z,20.30
2022-08-16T03:49:53.732Z,20.36
2022-08-16T03:54:59.476Z,20.38
2022-08-16T04:00:36.314Z,20.41
2022-08-16T04:05:44.348Z,20.45
2022-08-16T04:10:51.829Z,20.47
2022-08-16T04:15:55.684Z,20.48
2022-08-16T04:20:58.426Z,20.48
2022-08-16T04:26:02.372Z,20.48
2022-08-16T04:31:07.273Z,20.48
2022-08-16T04:36:19.917Z,20.52
2022-08-16T04:41:32.845Z,20.58
2022-08-16T04:47:01.128Z,20.70
2022-08-16T04:52:04.818Z,20.81
2022-08-16T04:57:30.179Z,20.78
2022-08-16T05:02:41.709Z,20.77
2022-08-16T05:07:58.357Z,20.79
2022-08-16T05:13:05.024Z,20.82
2022-08-16T05:18:15.835Z,20.86
2022-08-16T05:23:19.440Z,20.92
2022-08-16T05:28:31.077Z,21.01
2022-08-16T05:33:42.142Z,21.12
2022-08-16T05:38:45.163Z,21.22
2022-08-16T05:43:49.278Z,21.33
2022-08-16T05:48:54.623Z,21.45
2022-08-16T05:53:58.180Z,21.56
2022-08-16T05:59:00.925Z,21.67
2022-08-16T06:04:05.002Z,21.75
2022-08-16T06:09:17.866Z,21.83
2022-08-16T06:14:20.882Z,21.94
2022-08-16T06:19:24.249Z,22.07
2022-08-16T06:24:55.195Z,22.22
2022-08-16T06:29:50.423Z,22.32
2022-08-16T06:34:55.402Z,22.39
2022-08-16T06:40:00.595Z,22.50
2022-08-16T06:45:04.163Z,22.55
2022-08-16T06:50:07.907Z,22.65
2022-08-16T06:55:12.814Z,22.84
2022-08-16T07:00:24.502Z,23.02
2022-08-16T07:05:41.465Z,23.22
2022-08-16T07:10:44.908Z,23.54
2022-08-16T07:15:51.151Z,24.00
2022-08-16T07:21:01.785Z,24.60
2022-08-16T07:26:08.055Z,25.37
2022-08-16T07:31:13.163Z,26.63
2022-08-16T07:36:21.774Z,28.19
2022-08-16T07:41:25.168Z,29.76
2022-08-16T07:46:39.079Z,30.73
2022-08-16T07:51:43.013Z,31.24
2022-08-16T07:56:45.878Z,31.83
2022-08-16T08:01:48.689Z,32.16
2022-08-16T08:06:56.150Z,32.17
2022-08-16T08:12:00.717Z,32.04
2022-08-16T08:17:08.548Z,32.31
2022-08-16T08:22:19.308Z,32.69
2022-08-16T08:27:25.118Z,32.93
2022-08-16T08:32:57.881Z,33.08
2022-08-16T08:37:54.204Z,33.14
2022-08-16T08:43:12.040Z,33.27
2022-08-16T08:48:33.899Z,33.50
2022-08-16T08:53:38.780Z,34.02
2022-08-16T08:58:53.877Z,35.66
2022-08-16T09:03:58.083Z,37.02
2022-08-16T09:09:01.048Z,38.03
2022-08-16T09:14:05.915Z,39.99
2022-08-16T09:24:46.647Z,45.61
2022-08-16T09:29:45.574Z,47.61
2022-08-16T09:34:48.565Z,48.46
2022-08-16T09:39:52.387Z,48.30
2022-08-16T09:45:12.161Z,48.91
2022-08-16T09:50:22.948Z,50.02
2022-08-16T09:55:26.248Z,51.34
2022-08-16T10:00:43.993Z,52.50
2022-08-16T10:05:48.955Z,51.62
2022-08-16T10:11:10.523Z,51.00
2022-08-16T10:21:17.580Z,50.15
2022-08-16T10:27:19.839Z,48.54
2022-08-16T10:31:53.787Z,45.87
2022-08-16T10:36:57.048Z,43.08
2022-08-16T10:42:00.398Z,41.87
2022-08-16T10:47:04.637Z,40.90
2022-08-16T10:52:18.739Z,40.59
2022-08-16T10:57:24.641Z,40.74
2022-08-16T11:02:59.863Z,42.60
2022-08-16T11:07:53.939Z,44.07
2022-08-16T11:12:57.313Z,45.86
2022-08-16T11:23:23.793Z,48.86
2022-08-16T11:33:52.873Z,48.74
2022-08-16T11:38:58.828Z,48.89
2022-08-16T11:44:01.883Z,48.67
2022-08-16T11:49:11.256Z,49.16
2022-08-16T11:54:20.682Z,48.31
2022-08-16T11:59:25.491Z,46.62
2022-08-16T12:04:34.022Z,45.95
2022-08-16T12:09:43.069Z,45.46
2022-08-16T12:14:46.266Z,45.39
2022-08-16T12:19:49.354Z,45.21
2022-08-16T12:24:54.017Z,44.69
2022-08-16T12:29:58.394Z,44.41
2022-08-16T12:35:03.091Z,44.28
2022-08-16T12:40:23.929Z,44.53
2022-08-16T12:45:33.224Z,44.12
2022-08-16T12:50:39.083Z,43.57
2022-08-16T12:55:45.036Z,43.04
2022-08-16T13:00:48.865Z,42.85
2022-08-16T13:05:53.344Z,43.52
2022-08-16T13:10:59.926Z,43.61
2022-08-16T13:16:15.522Z,43.60
2022-08-16T13:21:24.162Z,43.92
2022-08-16T13:26:27.157Z,43.42
2022-08-16T13:31:30.365Z,42.39
2022-08-16T13:36:49.798Z,41.53
2022-08-16T13:41:53.724Z,41.05
2022-08-16T13:46:58.123Z,41.12
2022-08-16T13:52:01.304Z,40.89
2022-08-16T13:57:06.179Z,40.61
2022-08-16T14:02:11.294Z,39.60
2022-08-16T14:07:20.015Z,38.58
2022-08-16T14:12:30.440Z,38.44
2022-08-16T14:18:01.725Z,38.23
2022-08-16T14:22:56.317Z,38.15
2022-08-16T14:27:59.081Z,37.68
2022-08-16T14:33:05.028Z,37.11
2022-08-16T14:38:09.444Z,36.65
2022-08-16T14:43:20.755Z,36.23
2022-08-16T14:48:25.815Z,36.03
2022-08-16T14:53:31.270Z,35.75
2022-08-16T14:58:36.789Z,35.33
2022-08-16T15:03:44.502Z,35.04
2022-08-16T15:08:47.952Z,34.70
2022-08-16T15:13:51.658Z,34.37
2022-08-16T15:18:54.853Z,33.77
2022-08-16T15:24:00.275Z,33.16
2022-08-16T15:29:04.165Z,32.60
2022-08-16T15:34:18.995Z,32.48
2022-08-16T15:39:35.628Z,32.24
2022-08-16T15:44:52.872Z,31.99
2022-08-16T15:49:56.341Z,31.81
2022-08-16T15:55:13.249Z,31.54
2022-08-16T16:00:27.632Z,31.42
2022-08-16T16:05:30.423Z,31.34
2022-08-16T16:10:37.615Z,31.19
2022-08-16T16:15:45.695Z,30.91
2022-08-16T16:20:52.041Z,30.65
2022-08-16T16:25:56.025Z,30.45
2022-08-16T16:31:01.460Z,30.28
2022-08-16T16:36:05.720Z,30.13
2022-08-16T16:41:10.201Z,29.92
2022-08-16T16:46:39.216Z,29.71
2022-08-16T16:51:40.790Z,29.58
2022-08-16T16:56:49.682Z,29.45
2022-08-16T17:01:59.762Z,29.27
2022-08-16T17:07:16.769Z,29.07
2022-08-16T17:12:24.925Z,28.87
2022-08-16T17:17:59.323Z,28.65
2022-08-16T17:23:05.129Z,28.43
2022-08-16T17:28:58.402Z,28.24
2022-08-16T17:33:36.673Z,28.06
2022-08-16T17:38:43.971Z,27.91
2022-08-16T17:43:48.754Z,27.79
2022-08-16T17:48:51.680Z,27.68
2022-08-16T17:53:55.092Z,27.56
2022-08-16T17:58:57.772Z,27.41
2022-08-16T18:04:09.082Z,27.26
2022-08-16T18:09:14.911Z,27.12
2022-08-16T18:14:19.006Z,27.04
2022-08-16T18:19:41.719Z,26.94
2022-08-16T18:24:49.523Z,26.84
2022-08-16T18:29:52.562Z,26.72
2022-08-16T18:34:55.323Z,26.58
2022-08-16T18:39:58.485Z,26.48
2022-08-16T18:45:02.678Z,26.41
2022-08-16T18:50:06.448Z,26.36
2022-08-16T18:55:14.574Z,26.29
2022-08-16T19:00:21.480Z,26.20
2022-08-16T19:05:26.840Z,26.09
2022-08-16T19:10:31.411Z,25.96
2022-08-16T19:15:34.419Z,25.79
2022-08-16T19:20:37.906Z,25.68
2022-08-16T19:25:47.654Z,25.61
2022-08-16T19:30:53.067Z,25.56
2022-08-16T19:35:55.859Z,25.50
2022-08-16T19:40:58.628Z,25.47
2022-08-16T19:46:01.596Z,25.45
2022-08-16T19:51:04.518Z,25.44
2022-08-16T19:56:08.139Z,25.42
2022-08-16T20:01:12.674Z,25.38
2022-08-16T20:06:34.923Z,25.33
2022-08-16T20:11:39.792Z,25.29
2022-08-16T20:16:42.528Z,25.25
2022-08-16T20:21:45.658Z,25.20
2022-08-16T20:26:48.630Z,25.16
2022-08-16T20:31:51.796Z,25.12
2022-08-16T20:36:54.539Z,25.09
2022-08-16T20:47:19.144Z,24.99
2022-08-16T20:52:24.433Z,24.94
2022-08-16T20:57:27.182Z,24.91
2022-08-16T21:02:30.012Z,24.85
2022-08-16T21:07:32.985Z,24.78
2022-08-16T21:12:37.745Z,24.74
2022-08-16T21:17:40.773Z,24.70
2022-08-16T21:22:55.446Z,24.67
2022-08-16T21:28:39.480Z,24.64
2022-08-16T21:33:22.665Z,24.58
2022-08-16T21:38:30.116Z,24.51
2022-08-16T21:43:33.798Z,24.44
2022-08-16T21:48:40.686Z,24.37
2022-08-16T21:53:44.030Z,24.32
2022-08-16T21:58:52.690Z,24.26
2022-08-16T22:04:03.628Z,24.22
2022-08-16T22:09:19.475Z,24.18
2022-08-16T22:14:22.355Z,24.14
2022-08-16T22:19:25.370Z,24.07
2022-08-16T22:24:28.254Z,24.00
2022-08-16T22:29:31.322Z,23.95
2022-08-16T22:34:34.082Z,23.93
2022-08-16T22:39:36.911Z,23.92
2022-08-16T22:44:46.290Z,23.92
2022-08-16T22:49:49.341Z,23.86
2022-08-16T22:54:52.017Z,23.78
2022-08-16T22:59:54.846Z,23.71
2022-08-16T23:04:58.337Z,23.62
2022-08-16T23:10:01.680Z,23.51
2022-08-16T23:15:05.176Z,23.38
2022-08-16T23:20:09.675Z,23.26
2022-08-16T23:25:16.734Z,23.15
2022-08-16T23:30:21.737Z,23.02
2022-08-16T23:35:28.041Z,22.90
2022-08-16T23:40:49.523Z,22.77
2022-08-16T23:45:59.146Z,22.66
2022-08-16T23:51:09.170Z,22.60
2022-08-16T23:56:16.357Z,22.58
